createdAt,value
2017-09-04T00:01:09.672Z,18.16
2017-09-04T00:03:36.123Z,18.16
2017-09-04T00:06:02.551Z,18.13
2017-09-04T00:08:29.175Z,18.11
2017-09-04T00:10:55.833Z,18.20
2017-09-04T00:13:22.470Z,18.09
2017-09-04T00:15:48.978Z,18.03
2017-09-04T00:18:15.397Z,18.00
2017-09-04T00:20:41.969Z,18.00
2017-09-04T00:23:08.601Z,18.03
2017-09-04T00:25:35.251Z,18.17
2017-09-04T00:28:01.836Z,18.18
2017-09-04T00:30:28.528Z,18.20
2017-09-04T00:32:55.144Z,18.21
2017-09-04T00:35:21.762Z,18.26
2017-09-04T00:37:48.205Z,18.25
2017-09-04T00:40:14.875Z,18.03
2017-09-04T00:42:41.511Z,17.94
2017-09-04T00:45:08.133Z,17.96
2017-09-04T00:47:34.787Z,17.93
2017-09-04T00:50:01.425Z,17.84
2017-09-04T00:52:28.032Z,17.87
2017-09-04T00:54:54.702Z,17.86
2017-09-04T00:57:21.293Z,17.65
2017-09-04T00:59:47.978Z,17.58
2017-09-04T01:02:14.617Z,17.49
2017-09-04T01:04:41.254Z,17.51
2017-09-04T01:07:07.760Z,17.59
2017-09-04T01:09:34.276Z,17.60
2017-09-04T01:12:00.761Z,17.65
2017-09-04T01:14:27.399Z,17.73
2017-09-04T01:16:54.001Z,17.65
2017-09-04T01:19:20.672Z,17.56
2017-09-04T01:21:47.106Z,17.48
2017-09-04T01:24:13.530Z,17.53
2017-09-04T01:26:39.963Z,17.53
2017-09-04T01:29:06.586Z,17.51
2017-09-04T01:31:33.250Z,17.55
2017-09-04T01:33:59.676Z,17.48
2017-09-04T01:36:26.288Z,17.31
2017-09-04T01:38:52.957Z,17.22
2017-09-04T01:41:19.573Z,17.11
2017-09-04T01:43:46.233Z,17.10
2017-09-04T01:46:12.668Z,17.12
2017-09-04T01:48:39.104Z,17.07
2017-09-04T01:51:05.592Z,17.10
2017-09-04T01:53:32.172Z,17.12
2017-09-04T01:55:58.605Z,17.08
2017-09-04T01:58:25.094Z,17.00
2017-09-04T02:00:51.632Z,16.97
2017-09-04T02:03:18.298Z,16.86
2017-09-04T02:05:44.955Z,16.95
2017-09-04T02:08:11.411Z,16.96
2017-09-04T02:10:37.877Z,16.91
2017-09-04T02:13:04.242Z,16.92
2017-09-04T02:15:30.892Z,16.78
2017-09-04T02:17:57.498Z,16.92
2017-09-04T02:20:23.961Z,16.79
2017-09-04T02:22:50.360Z,16.65
2017-09-04T02:25:16.809Z,16.62
2017-09-04T02:27:43.466Z,16.70
2017-09-04T02:30:10.108Z,16.69
2017-09-04T02:32:36.730Z,16.65
2017-09-04T02:35:03.223Z,16.77
2017-09-04T02:37:29.764Z,16.79
2017-09-04T02:39:56.430Z,16.80
2017-09-04T02:42:23.092Z,16.75
2017-09-04T02:44:49.686Z,16.93
2017-09-04T02:47:16.356Z,16.86
2017-09-04T02:49:42.874Z,16.77
2017-09-04T02:52:09.491Z,16.71
2017-09-04T02:54:35.935Z,16.50
2017-09-04T02:57:02.403Z,16.34
2017-09-04T02:59:28.993Z,16.27
2017-09-04T03:01:55.437Z,16.16
2017-09-04T03:04:21.877Z,16.20
2017-09-04T03:06:48.647Z,16.25
2017-09-04T03:09:15.137Z,16.22
2017-09-04T03:11:41.580Z,16.17
2017-09-04T03:14:08.362Z,16.14
2017-09-04T03:16:34.986Z,16.18
2017-09-04T03:19:01.638Z,16.30
2017-09-04T03:21:28.246Z,16.31
2017-09-04T03:23:54.915Z,16.26
2017-09-04T03:26:21.529Z,16.16
2017-09-04T03:28:48.147Z,16.23
2017-09-04T03:31:14.828Z,16.26
2017-09-04T03:33:41.455Z,16.36
2017-09-04T03:36:08.070Z,16.38
2017-09-04T03:38:34.538Z,16.26
2017-09-04T03:41:01.176Z,16.22
2017-09-04T03:43:27.800Z,16.26
2017-09-04T03:45:54.452Z,16.27
2017-09-04T03:48:21.082Z,16.18
2017-09-04T03:50:47.675Z,16.14
2017-09-04T03:53:14.369Z,16.23
2017-09-04T03:55:41.005Z,16.11
2017-09-04T03:58:07.644Z,16.04
2017-09-04T04:00:34.266Z,15.99
2017-09-04T04:03:00.760Z,15.97
2017-09-04T04:05:27.146Z,15.88
2017-09-04T04:07:53.769Z,15.88
2017-09-04T04:10:20.423Z,15.98
2017-09-04T04:12:47.063Z,16.05
2017-09-04T04:15:13.494Z,16.25
2017-09-04T04:17:39.990Z,16.47
2017-09-04T04:20:06.778Z,16.60
2017-09-04T04:22:33.390Z,17.31
2017-09-04T04:25:00.049Z,18.08
2017-09-04T04:27:26.630Z,18.18
2017-09-04T04:29:53.328Z,18.46
2017-09-04T04:32:19.813Z,19.09
2017-09-04T04:34:46.603Z,19.86
2017-09-04T04:37:13.239Z,20.46
2017-09-04T04:39:39.674Z,21.10
2017-09-04T04:42:06.310Z,21.72
2017-09-04T04:44:32.923Z,22.37
2017-09-04T04:46:59.586Z,23.11
2017-09-04T04:49:26.017Z,23.73
2017-09-04T04:51:52.501Z,24.54
2017-09-04T04:54:18.942Z,24.92
2017-09-04T04:56:45.533Z,25.40
2017-09-04T04:59:12.028Z,25.96
2017-09-04T05:01:38.544Z,26.27
2017-09-04T05:04:05.185Z,26.29
2017-09-04T05:06:31.872Z,26.57
2017-09-04T05:08:58.494Z,26.44
2017-09-04T05:11:25.111Z,26.59
2017-09-04T05:13:51.580Z,27.33
2017-09-04T05:16:18.015Z,28.04
2017-09-04T05:18:44.613Z,29.07
2017-09-04T05:21:11.079Z,28.40
2017-09-04T05:23:37.723Z,26.88
2017-09-04T05:26:04.362Z,25.12
2017-09-04T05:28:30.794Z,24.50
2017-09-04T05:30:57.238Z,23.78
2017-09-04T05:33:23.867Z,23.09
2017-09-04T05:35:50.482Z,22.40
2017-09-04T05:38:17.143Z,22.09
2017-09-04T05:40:43.781Z,21.61
2017-09-04T05:43:10.408Z,21.37
2017-09-04T05:45:36.903Z,21.27
2017-09-04T05:48:03.285Z,21.09
2017-09-04T05:50:29.714Z,20.98
2017-09-04T05:52:56.001Z,20.99
2017-09-04T05:55:22.544Z,21.04
2017-09-04T05:57:49.210Z,21.18
2017-09-04T06:00:15.862Z,22.25
2017-09-04T06:02:42.445Z,24.17
2017-09-04T06:05:09.112Z,25.08
2017-09-04T06:07:35.754Z,25.20
2017-09-04T06:10:02.374Z,25.10
2017-09-04T06:12:28.849Z,26.05
2017-09-04T06:14:55.460Z,28.44
2017-09-04T06:17:21.922Z,29.87
2017-09-04T06:19:48.540Z,31.85
2017-09-04T06:22:15.197Z,33.12
2017-09-04T06:24:41.834Z,33.09
2017-09-04T06:27:08.319Z,32.81
2017-09-04T06:29:34.761Z,31.20
2017-09-04T06:32:01.544Z,28.25
2017-09-04T06:34:28.022Z,26.92
2017-09-04T06:36:54.310Z,26.59
2017-09-04T06:39:21.029Z,26.35
2017-09-04T06:41:47.715Z,25.85
2017-09-04T06:44:14.287Z,25.48
2017-09-04T06:46:40.761Z,25.44
2017-09-04T06:49:07.398Z,25.22
2017-09-04T06:51:34.015Z,25.13
2017-09-04T06:54:00.468Z,25.57
2017-09-04T06:56:27.076Z,25.56
2017-09-04T06:58:53.745Z,25.16
2017-09-04T07:01:20.377Z,24.81
2017-09-04T07:03:46.816Z,24.51
2017-09-04T07:06:13.455Z,24.54
2017-09-04T07:08:40.090Z,24.49
2017-09-04T07:11:06.516Z,24.23
2017-09-04T07:13:33.146Z,24.62
2017-09-04T07:15:59.663Z,24.63
2017-09-04T07:18:26.179Z,25.05
2017-09-04T07:20:52.648Z,26.25
2017-09-04T07:23:19.262Z,28.20
2017-09-04T07:25:45.735Z,29.75
2017-09-04T07:28:12.349Z,30.01
2017-09-04T07:30:38.868Z,30.59
2017-09-04T07:33:05.309Z,31.17
2017-09-04T07:35:31.728Z,32.26
2017-09-04T07:37:58.492Z,31.37
2017-09-04T07:40:25.155Z,31.46
2017-09-04T07:42:51.594Z,31.63
2017-09-04T07:45:18.227Z,32.93
2017-09-04T07:47:44.710Z,31.49
2017-09-04T07:50:11.155Z,32.07
2017-09-04T07:52:37.739Z,32.40
2017-09-04T07:55:04.063Z,32.85
2017-09-04T07:57:30.598Z,32.89
2017-09-04T07:59:57.019Z,31.48
2017-09-04T08:02:23.671Z,31.84
2017-09-04T08:04:50.132Z,32.23
2017-09-04T08:07:16.536Z,31.41
2017-09-04T08:09:43.019Z,30.73
2017-09-04T08:12:09.610Z,31.41
2017-09-04T08:14:35.966Z,31.64
2017-09-04T08:17:02.551Z,30.61
2017-09-04T08:19:29.061Z,30.00
2017-09-04T08:21:55.545Z,30.95
2017-09-04T08:24:21.874Z,31.94
2017-09-04T08:26:48.412Z,32.10
2017-09-04T08:29:15.051Z,30.25
2017-09-04T08:31:41.476Z,28.95
2017-09-04T08:34:07.966Z,28.96
2017-09-04T08:36:34.677Z,28.74
2017-09-04T08:39:01.252Z,28.94
2017-09-04T08:41:27.726Z,29.09
2017-09-04T08:43:54.310Z,29.46
2017-09-04T08:46:20.757Z,29.73
2017-09-04T08:48:47.197Z,30.59
2017-09-04T08:51:13.976Z,31.22
2017-09-04T08:53:40.283Z,30.76
2017-09-04T08:56:06.841Z,29.76
2017-09-04T08:58:33.480Z,29.97
2017-09-04T09:00:59.915Z,29.90
2017-09-04T09:03:26.341Z,29.83
2017-09-04T09:05:53.189Z,30.46
2017-09-04T09:08:19.806Z,30.11
2017-09-04T09:10:46.465Z,30.79
2017-09-04T09:13:13.102Z,31.60
2017-09-04T09:15:39.709Z,31.87
2017-09-04T09:18:06.381Z,31.64
2017-09-04T09:20:32.812Z,31.20
2017-09-04T09:22:59.243Z,31.34
2017-09-04T09:25:25.680Z,31.53
2017-09-04T09:27:52.269Z,30.71
2017-09-04T09:30:18.954Z,30.95
2017-09-04T09:32:45.581Z,31.08
2017-09-04T09:35:12.024Z,31.41
2017-09-04T09:37:38.639Z,31.57
2017-09-04T09:40:05.085Z,30.95
2017-09-04T09:42:31.603Z,31.86
2017-09-04T09:44:58.119Z,31.84
2017-09-04T09:47:24.657Z,31.89
2017-09-04T09:49:51.202Z,32.37
2017-09-04T09:52:17.672Z,31.80
2017-09-04T09:54:44.094Z,30.71
2017-09-04T09:57:10.540Z,31.31
2017-09-04T09:59:36.962Z,31.38
2017-09-04T10:02:03.464Z,30.57
2017-09-04T10:04:29.980Z,30.98
2017-09-04T10:06:56.468Z,31.11
2017-09-04T10:09:22.902Z,32.13
2017-09-04T10:11:49.755Z,32.35
2017-09-04T10:14:16.392Z,31.66
2017-09-04T10:16:42.825Z,31.83
2017-09-04T10:19:09.410Z,31.02
2017-09-04T10:21:36.077Z,29.53
2017-09-04T10:24:02.739Z,30.29
2017-09-04T10:26:29.363Z,31.95
2017-09-04T10:28:55.857Z,32.28
2017-09-04T10:31:22.298Z,30.94
2017-09-04T10:33:48.677Z,30.55
2017-09-04T10:36:15.163Z,31.27
2017-09-04T10:38:41.544Z,30.39
2017-09-04T10:41:08.141Z,30.71
2017-09-04T10:43:34.763Z,31.65
2017-09-04T10:46:01.304Z,31.32
2017-09-04T10:48:27.946Z,30.76
2017-09-04T10:50:54.709Z,31.29
2017-09-04T10:53:21.228Z,31.70
2017-09-04T10:55:47.872Z,31.43
2017-09-04T10:58:14.447Z,30.71
2017-09-04T11:00:40.933Z,31.64
2017-09-04T11:03:07.572Z,32.18
2017-09-04T11:05:34.358Z,32.15
2017-09-04T11:08:00.822Z,32.29
2017-09-04T11:10:27.232Z,32.68
2017-09-04T11:12:53.642Z,32.64
2017-09-04T11:15:20.094Z,32.55
2017-09-04T11:17:46.933Z,31.71
2017-09-04T11:20:13.362Z,32.69
2017-09-04T11:22:39.795Z,32.87
2017-09-04T11:25:06.629Z,32.87
2017-09-04T11:27:33.124Z,32.50
2017-09-04T11:29:59.882Z,32.57
2017-09-04T11:32:26.505Z,32.57
2017-09-04T11:34:53.050Z,32.85
2017-09-04T11:37:19.833Z,32.01
2017-09-04T11:39:46.473Z,30.53
2017-09-04T11:42:13.078Z,29.86
2017-09-04T11:44:39.521Z,30.22
2017-09-04T11:47:06.133Z,31.78
2017-09-04T11:49:32.679Z,32.13
2017-09-04T11:51:59.457Z,33.23
2017-09-04T11:54:25.886Z,33.16
2017-09-04T11:56:52.324Z,32.46
2017-09-04T11:59:18.946Z,32.98
2017-09-04T12:01:45.564Z,32.94
2017-09-04T12:04:12.032Z,31.62
2017-09-04T12:06:38.466Z,31.76
2017-09-04T12:09:05.106Z,31.76
2017-09-04T12:11:31.586Z,32.54
2017-09-04T12:13:58.350Z,31.41
2017-09-04T12:16:24.810Z,31.91
2017-09-04T12:18:51.414Z,31.49
2017-09-04T12:21:17.933Z,32.34
2017-09-04T12:23:44.575Z,33.52
2017-09-04T12:26:11.331Z,33.33
2017-09-04T12:28:37.857Z,32.14
2017-09-04T12:31:04.436Z,30.58
2017-09-04T12:33:30.918Z,30.10
2017-09-04T12:35:57.304Z,30.08
2017-09-04T12:38:23.898Z,30.10
2017-09-04T12:40:50.581Z,29.20
2017-09-04T12:43:17.208Z,30.22
2017-09-04T12:45:43.797Z,31.08
2017-09-04T12:48:10.343Z,31.91
2017-09-04T12:50:37.111Z,33.38
2017-09-04T12:53:03.771Z,33.31
2017-09-04T12:55:30.249Z,33.59
2017-09-04T12:57:57.014Z,32.02
2017-09-04T13:00:23.483Z,31.03
2017-09-04T13:02:50.094Z,30.30
2017-09-04T13:05:16.760Z,28.63
2017-09-04T13:07:43.189Z,28.28
2017-09-04T13:10:09.679Z,28.55
2017-09-04T13:12:36.123Z,27.68
2017-09-04T13:15:02.699Z,27.24
2017-09-04T13:17:29.178Z,26.89
2017-09-04T13:19:55.642Z,27.24
2017-09-04T13:22:22.403Z,27.06
2017-09-04T13:24:49.005Z,26.91
2017-09-04T13:27:15.469Z,26.27
2017-09-04T13:29:42.063Z,26.63
2017-09-04T13:32:08.750Z,26.96
2017-09-04T13:34:35.245Z,26.38
2017-09-04T13:37:01.789Z,26.59
2017-09-04T13:39:28.463Z,26.27
2017-09-04T13:41:55.075Z,26.30
2017-09-04T13:44:21.526Z,26.41
2017-09-04T13:46:48.133Z,26.67
2017-09-04T13:49:14.803Z,26.13
2017-09-04T13:51:41.445Z,25.89
2017-09-04T13:54:07.733Z,25.99
2017-09-04T13:56:34.106Z,25.87
2017-09-04T13:59:00.745Z,25.72
2017-09-04T14:01:27.358Z,25.37
2017-09-04T14:03:53.817Z,25.22
2017-09-04T14:06:20.480Z,25.25
2017-09-04T14:08:46.986Z,25.51
2017-09-04T14:11:13.429Z,25.30
2017-09-04T14:13:39.851Z,25.07
2017-09-04T14:16:06.339Z,25.12
2017-09-04T14:18:32.788Z,24.83
2017-09-04T14:20:59.364Z,24.85
2017-09-04T14:23:25.787Z,24.91
2017-09-04T14:25:52.225Z,24.97
2017-09-04T14:28:18.656Z,25.19
2017-09-04T14:30:45.090Z,25.42
2017-09-04T14:33:11.556Z,25.60
2017-09-04T14:35:38.141Z,25.53
2017-09-04T14:38:04.791Z,25.32
2017-09-04T14:40:31.442Z,25.24
2017-09-04T14:42:57.866Z,25.09
2017-09-04T14:45:24.514Z,25.22
2017-09-04T14:47:50.935Z,25.43
2017-09-04T14:50:17.529Z,25.61
2017-09-04T14:52:44.223Z,25.74
2017-09-04T14:55:10.659Z,25.91
2017-09-04T14:57:37.383Z,25.99
2017-09-04T15:00:03.872Z,26.07
2017-09-04T15:02:30.414Z,25.94
2017-09-04T15:04:57.059Z,25.89
2017-09-04T15:07:23.740Z,25.52
2017-09-04T15:09:50.070Z,25.41
2017-09-04T15:12:16.609Z,25.27
2017-09-04T15:14:43.045Z,24.86
2017-09-04T15:17:09.321Z,24.55
2017-09-04T15:19:35.665Z,24.41
2017-09-04T15:22:02.328Z,24.36
2017-09-04T15:24:28.799Z,24.33
2017-09-04T15:26:55.460Z,24.01
2017-09-04T15:29:21.859Z,23.97
2017-09-04T15:31:48.300Z,23.82
2017-09-04T15:34:14.888Z,23.59
2017-09-04T15:36:41.361Z,23.60
2017-09-04T15:39:08.010Z,23.55
2017-09-04T15:41:34.444Z,23.58
2017-09-04T15:44:00.875Z,23.50
2017-09-04T15:46:27.309Z,23.25
2017-09-04T15:48:53.742Z,23.14
2017-09-04T15:51:20.166Z,23.17
2017-09-04T15:53:46.654Z,23.10
2017-09-04T15:56:13.199Z,22.97
2017-09-04T15:58:39.883Z,22.90
2017-09-04T16:01:06.518Z,22.89
2017-09-04T16:03:33.155Z,22.72
2017-09-04T16:05:59.512Z,22.62
2017-09-04T16:08:25.985Z,22.39
2017-09-04T16:10:52.459Z,22.37
2017-09-04T16:13:18.736Z,22.23
2017-09-04T16:15:45.132Z,22.12
2017-09-04T16:18:11.653Z,22.06
2017-09-04T16:20:37.987Z,21.98
2017-09-04T16:23:04.411Z,21.94
2017-09-04T16:25:30.999Z,21.84
2017-09-04T16:27:57.484Z,21.66
2017-09-04T16:30:23.773Z,21.58
2017-09-04T16:32:50.103Z,21.52
2017-09-04T16:35:16.386Z,21.42
2017-09-04T16:37:42.673Z,21.31
2017-09-04T16:40:09.051Z,21.26
2017-09-04T16:42:35.337Z,21.18
2017-09-04T16:45:01.702Z,21.10
2017-09-04T16:47:28.170Z,21.02
2017-09-04T16:49:54.450Z,21.01
2017-09-04T16:52:20.739Z,20.87
2017-09-04T16:54:47.104Z,20.80
2017-09-04T16:57:13.406Z,20.69
2017-09-04T16:59:39.688Z,20.73
2017-09-04T17:02:06.055Z,20.62
2017-09-04T17:04:32.752Z,20.54
2017-09-04T17:06:59.223Z,20.48
2017-09-04T17:09:25.627Z,20.41
2017-09-04T17:11:52.232Z,20.29
2017-09-04T17:14:18.923Z,20.24
2017-09-04T17:16:45.364Z,20.19
2017-09-04T17:19:11.753Z,20.12
2017-09-04T17:21:38.058Z,20.03
2017-09-04T17:24:04.564Z,20.00
2017-09-04T17:26:31.055Z,19.91
2017-09-04T17:28:57.500Z,19.84
2017-09-04T17:31:24.035Z,19.69
2017-09-04T17:33:50.584Z,19.60
2017-09-04T17:36:17.012Z,19.49
2017-09-04T17:38:43.413Z,19.29
2017-09-04T17:41:10.085Z,19.16
2017-09-04T17:43:36.367Z,19.12
2017-09-04T17:46:02.744Z,18.97
2017-09-04T17:48:29.364Z,18.83
2017-09-04T17:50:56.021Z,18.64
2017-09-04T17:53:22.660Z,18.45
2017-09-04T17:55:49.289Z,18.24
2017-09-04T17:58:15.783Z,18.17
2017-09-04T18:00:42.159Z,18.10
2017-09-04T18:03:08.598Z,18.01
2017-09-04T18:05:35.029Z,17.84
2017-09-04T18:08:01.458Z,17.87
2017-09-04T18:10:27.892Z,17.83
2017-09-04T18:12:54.382Z,17.69
2017-09-04T18:15:20.935Z,17.51
2017-09-04T18:17:47.386Z,17.49
2017-09-04T18:20:13.887Z,17.33
2017-09-04T18:22:40.449Z,17.28
2017-09-04T18:25:06.907Z,17.20
2017-09-04T18:27:33.544Z,17.10
2017-09-04T18:30:00.125Z,17.14
2017-09-04T18:32:26.821Z,17.16
2017-09-04T18:34:53.437Z,17.32
2017-09-04T18:37:20.053Z,17.36
2017-09-04T18:39:46.524Z,17.38
2017-09-04T18:42:12.957Z,17.29
2017-09-04T18:44:39.552Z,17.28
2017-09-04T18:47:06.030Z,17.09
2017-09-04T18:49:32.362Z,16.93
2017-09-04T18:51:58.911Z,16.96
2017-09-04T18:54:25.522Z,17.04
2017-09-04T18:56:52.174Z,16.94
2017-09-04T18:59:18.812Z,16.98
2017-09-04T19:01:45.421Z,17.11
2017-09-04T19:04:12.087Z,17.26
2017-09-04T19:06:38.732Z,17.13
2017-09-04T19:09:05.043Z,17.14
2017-09-04T19:11:31.440Z,16.92
2017-09-04T19:13:57.808Z,16.88
2017-09-04T19:16:24.479Z,17.10
2017-09-04T19:18:50.889Z,17.01
2017-09-04T19:21:17.538Z,16.75
2017-09-04T19:23:43.837Z,16.59
2017-09-04T19:26:10.596Z,16.80
2017-09-04T19:28:37.459Z,16.66
2017-09-04T19:31:03.781Z,16.51
2017-09-04T19:33:30.065Z,16.40
2017-09-04T19:35:56.402Z,16.32
2017-09-04T19:38:22.690Z,16.42
2017-09-04T19:40:48.987Z,16.46
2017-09-04T19:43:15.351Z,16.33
2017-09-04T19:45:41.643Z,16.29
2017-09-04T19:48:07.943Z,16.26
2017-09-04T19:50:34.446Z,16.31
2017-09-04T19:53:00.758Z,16.17
2017-09-04T19:55:27.066Z,16.07
2017-09-04T19:57:53.404Z,16.19
2017-09-04T20:00:20.028Z,16.04
2017-09-04T20:02:46.326Z,15.86
2017-09-04T20:05:12.738Z,15.74
2017-09-04T20:07:39.038Z,15.65
2017-09-04T20:10:05.583Z,15.64
2017-09-04T20:12:32.005Z,15.60
2017-09-04T20:14:58.450Z,15.59
2017-09-04T20:17:25.087Z,15.60
2017-09-04T20:19:51.727Z,15.52
2017-09-04T20:22:18.034Z,15.44
2017-09-04T20:24:44.403Z,15.37
2017-09-04T20:27:10.840Z,15.36
2017-09-04T20:29:37.150Z,15.26
2017-09-04T20:32:03.464Z,15.18
2017-09-04T20:34:29.824Z,15.25
2017-09-04T20:36:56.140Z,15.16
2017-09-04T20:39:22.782Z,15.12
2017-09-04T20:41:49.147Z,15.05
2017-09-04T20:44:15.525Z,14.96
2017-09-04T20:46:42.051Z,14.95
2017-09-04T20:49:08.453Z,15.04
2017-09-04T20:51:34.792Z,15.01
2017-09-04T20:54:01.228Z,14.88
2017-09-04T20:56:27.573Z,14.81
2017-09-04T20:58:53.867Z,14.95
2017-09-04T21:01:20.170Z,15.06
2017-09-04T21:03:46.523Z,14.93
2017-09-04T21:06:12.809Z,14.91
2017-09-04T21:08:39.098Z,15.02
2017-09-04T21:11:05.464Z,14.99
2017-09-04T21:13:31.750Z,14.81
2017-09-04T21:15:58.032Z,14.59
2017-09-04T21:18:24.356Z,14.38
2017-09-04T21:20:50.646Z,14.41
2017-09-04T21:23:16.924Z,14.40
2017-09-04T21:25:43.250Z,14.58
2017-09-04T21:28:09.546Z,14.75
2017-09-04T21:30:35.848Z,14.50
2017-09-04T21:33:02.200Z,14.65
2017-09-04T21:35:28.507Z,14.61
2017-09-04T21:37:54.786Z,14.39
2017-09-04T21:40:21.131Z,14.20
2017-09-04T21:42:47.423Z,14.06
2017-09-04T21:45:13.701Z,14.08
2017-09-04T21:47:40.033Z,14.29
2017-09-04T21:50:06.332Z,14.14
2017-09-04T21:52:32.650Z,14.18
2017-09-04T21:54:58.989Z,14.19
2017-09-04T21:57:25.291Z,14.08
2017-09-04T21:59:51.582Z,14.01
2017-09-04T22:02:18.205Z,14.38
2017-09-04T22:04:44.669Z,14.36
2017-09-04T22:07:11.310Z,14.26
2017-09-04T22:09:37.744Z,14.00
2017-09-04T22:12:04.177Z,13.80
2017-09-04T22:14:30.610Z,13.68
2017-09-04T22:16:57.207Z,13.62
2017-09-04T22:19:23.748Z,13.75
2017-09-04T22:21:50.265Z,13.57
2017-09-04T22:24:16.805Z,13.47
2017-09-04T22:26:43.350Z,13.58
2017-09-04T22:29:09.814Z,13.84
2017-09-04T22:31:36.166Z,13.64
2017-09-04T22:34:02.486Z,13.57
2017-09-04T22:36:29.087Z,13.62
2017-09-04T22:38:55.609Z,13.71
2017-09-04T22:41:22.154Z,13.73
2017-09-04T22:43:48.832Z,13.87
2017-09-04T22:46:15.259Z,13.80
2017-09-04T22:48:41.747Z,13.75
2017-09-04T22:51:08.129Z,13.68
2017-09-04T22:53:34.730Z,13.57
2017-09-04T22:56:01.378Z,13.53
2017-09-04T22:58:27.839Z,13.46
2017-09-04T23:00:54.310Z,13.32
2017-09-04T23:03:20.778Z,13.10
2017-09-04T23:05:47.222Z,13.17
2017-09-04T23:08:13.986Z,13.06
2017-09-04T23:10:40.602Z,13.17
2017-09-04T23:13:07.096Z,13.04
2017-09-04T23:15:33.683Z,13.15
2017-09-04T23:18:00.333Z,13.10
2017-09-04T23:20:26.609Z,12.99
2017-09-04T23:22:52.986Z,12.95
2017-09-04T23:25:19.412Z,12.79
2017-09-04T23:27:46.047Z,12.90
2017-09-04T23:30:12.666Z,12.73
2017-09-04T23:32:39.341Z,12.66
2017-09-04T23:35:05.764Z,12.63
2017-09-04T23:37:32.418Z,12.58
2017-09-04T23:39:59.031Z,12.63
2017-09-04T23:42:25.691Z,12.65
2017-09-04T23:44:52.124Z,12.80
2017-09-04T23:47:18.734Z,12.69
2017-09-04T23:49:45.398Z,12.87
2017-09-04T23:52:11.864Z,12.83
2017-09-04T23:54:38.469Z,12.85
2017-09-04T23:57:05.076Z,12.89
2017-09-04T23:59:31.693Z,12.73
